• Join FlightAware (Why Join?)
  • Login
  • US Flag 
02:43AM EDT


 

Airport Tracker/Info


-or-


 

Live Flight TrackerFlight Track Log ✈ CCA1226 ✈ 13-Nov-2013 ✈ ZGKL / KWL - ZBAA / PEK

Flight Track Log - Related Links

Times and Time Zones

All times are in EST time to prevent confusion due to time zone crossing. See the CCA1226 flight status page for this flight to view local times or setup timezone preferences in your user account.

Time Position Orientation Groundspeed Altitude Reporting Facility
EST Latitude Longitude Course Direction KTS MPH feet Rate Location/Type
08:42AM 25.7023 110.2205 19° North  Level Estimated
08:43AM 25.7992 110.2569 19° North  Level Estimated
08:44AM 25.8960 110.2934 19° North  Level Estimated
08:45AM 25.9928 110.3299 19° North  Level Estimated
08:46AM 26.0896 110.3666 19° North  Level Estimated
08:47AM 26.1863 110.4032 19° North  Level Estimated
08:48AM 26.2831 110.4400 19° North  Level Estimated
08:49AM 26.3799 110.4768 19° North  Level Estimated
08:50AM 26.4766 110.5136 19° North  Level Estimated
08:51AM 26.5734 110.5505 19° North  Level Estimated
08:52AM 26.6701 110.5875 19° North  Level Estimated
08:53AM 26.7668 110.6246 19° North  Level Estimated
08:54AM 26.8636 110.6617 19° North  Level Estimated
08:55AM 26.9603 110.6988 19° North  Level Estimated
08:56AM 27.0570 110.7361 19° North  Level Estimated
08:57AM 27.1537 110.7734 19° North  Level Estimated
08:58AM 27.2504 110.8107 19° North  Level Estimated
08:59AM 27.3470 110.8482 19° North  Level Estimated
09:00AM 27.4437 110.8857 19° North  Level Estimated
09:01AM 27.5403 110.9232 19° North  Level Estimated
09:02AM 27.6370 110.9608 19° North  Level Estimated
09:03AM 27.7336 110.9985 19° North  Level Estimated
09:04AM 27.8302 111.0363 19° North  Level Estimated
09:05AM 27.9268 111.0741 19° North  Level Estimated
09:06AM 28.0234 111.1120 19° North  Level Estimated
09:07AM 28.1200 111.1500 19° North  Level Estimated
09:08AM 28.2166 111.1880 19° North  Level Estimated
09:09AM 28.3132 111.2261 19° North  Level Estimated
09:10AM 28.4097 111.2643 19° North  Level Estimated
09:11AM 28.5063 111.3025 19° North  Level Estimated
09:12AM 28.6028 111.3408 19° North  Level Estimated
09:13AM 28.6993 111.3792 19° North  Level Estimated
09:14AM 28.7958 111.4176 19° North  Level Estimated
09:15AM 28.8923 111.4562 19° North  Level Estimated
09:16AM 28.9888 111.4948 19° North  Level Estimated
09:17AM 29.0853 111.5334 19° North  Level Estimated
09:18AM 29.1818 111.5722 19° North  Level Estimated
09:19AM 29.2782 111.6110 19° North  Level Estimated
09:20AM 29.3747 111.6498 19° North  Level Estimated
09:21AM 29.4711 111.6888 19° North  Level Estimated
09:22AM 29.5675 111.7278 19° North  Level Estimated
09:23AM 29.6639 111.7670 19° North  Level Estimated
09:24AM 29.7603 111.8061 19° North  Level Estimated
09:25AM 29.8567 111.8454 19° North  Level Estimated
09:26AM 29.9531 111.8847 19° North  Level Estimated
09:27AM 30.0495 111.9241 19° North  Level Estimated
09:28AM 30.1458 111.9636 20° North  Level Estimated
09:29AM 30.2421 112.0032 20° North  Level Estimated
09:30AM 30.3385 112.0428 20° North  Level Estimated
09:31AM 30.4348 112.0825 20° North  Level Estimated
09:32AM 30.5311 112.1223 20° North  Level Estimated
09:33AM 30.6274 112.1622 20° North  Level Estimated
09:34AM 30.7237 112.2022 20° North  Level Estimated
09:35AM 30.8200 112.2422 20° North  Level Estimated
09:36AM 30.9162 112.2823 20° North  Level Estimated
09:37AM 31.0124 112.3225 20° North  Level Estimated
09:38AM 31.1087 112.3628 20° North  Level Estimated
09:39AM 31.2049 112.4032 20° North  Level Estimated
09:40AM 31.3011 112.4436 20° North  Level Estimated
09:41AM 31.3973 112.4841 20° North  Level Estimated
09:42AM 31.4935 112.5247 20° North  Level Estimated
09:43AM 31.5896 112.5654 20° North  Level Estimated
09:44AM 31.6858 112.6062 20° North  Level Estimated
09:45AM 31.7819 112.6471 20° North  Level Estimated
09:46AM 31.8781 112.6880 20° North  Level Estimated
09:47AM 31.9742 112.7290 20° North  Level Estimated
09:48AM 32.0703 112.7701 20° North  Level Estimated
09:49AM 32.1664 112.8113 20° North  Level Estimated
09:50AM 32.2625 112.8526 20° North  Level Estimated
09:51AM 32.3585 112.8940 20° North  Level Estimated
09:52AM 32.4546 112.9355 20° North  Level Estimated
09:53AM 32.5506 112.9770 20° North  Level Estimated
09:54AM 32.6466 113.0187 20° North  Level Estimated
09:55AM 32.7426 113.0604 20° North  Level Estimated
09:56AM 32.8386 113.1022 20° North  Level Estimated
09:57AM 32.9346 113.1441 20° North  Level Estimated
09:58AM 33.0306 113.1861 20° North  Level Estimated
09:59AM 33.1265 113.2282 20° North  Level Estimated
10:00AM 33.2225 113.2704 20° North  Level Estimated
10:01AM 33.3184 113.3127 20° North  Level Estimated
10:02AM 33.4143 113.3551 20° North  Level Estimated
10:03AM 33.5102 113.3975 20° North  Level Estimated
10:04AM 33.6061 113.4401 20° North  Level Estimated
10:05AM 33.7020 113.4828 20° North  Level Estimated
10:06AM 33.7978 113.5255 20° North  Level Estimated
10:07AM 33.8936 113.5684 20° North  Level Estimated
10:08AM 33.9895 113.6113 20° North  Level Estimated
10:09AM 34.0853 113.6543 20° North  Level Estimated
10:10AM 34.1811 113.6975 20° North  Level Estimated
10:11AM 34.2768 113.7407 20° North  Level Estimated
10:12AM 34.3726 113.7840 20° North  Level Estimated
10:13AM 34.4683 113.8275 21° North  Level Estimated
10:14AM 34.5641 113.8710 21° North  Level Estimated
10:15AM 34.6598 113.9146 21° North  Level Estimated
10:16AM 34.7555 113.9584 21° North  Level Estimated
10:17AM 34.8512 114.0022 21° North  Level Estimated
10:18AM 34.9468 114.0462 21° North  Level Estimated
10:19AM 35.0425 114.0902 21° North  Level Estimated
10:20AM 35.1381 114.1343 21° North  Level Estimated
10:21AM 35.2337 114.1786 21° North  Level Estimated
10:22AM 35.3293 114.2229 21° North  Level Estimated
10:23AM 35.4249 114.2674 21° North  Level Estimated
10:24AM 35.5205 114.3120 21° North  Level Estimated
10:25AM 35.6161 114.3566 21° North  Level Estimated
10:26AM 35.7116 114.4014 21° North  Level Estimated
10:27AM 35.8071 114.4463 21° North  Level Estimated
10:28AM 35.9026 114.4913 21° North  Level Estimated
10:29AM 35.9981 114.5364 21° North  Level Estimated
10:30AM 36.0936 114.5816 21° North  Level Estimated
10:31AM 36.1890 114.6269 21° North  Level Estimated
10:32AM 36.2845 114.6723 21° North  Level Estimated
10:33AM 36.3799 114.7179 21° North  Level Estimated
10:34AM 36.4753 114.7635 21° North  Level Estimated
10:35AM 36.5707 114.8093 21° North  Level Estimated
10:36AM 36.6660 114.8552 21° North  Level Estimated
10:37AM 36.7614 114.9012 21° North  Level Estimated
10:38AM 36.8567 114.9473 21° North  Level Estimated
10:39AM 36.9520 114.9935 21° North  Level Estimated
10:40AM 37.0473 115.0398 21° North  Level Estimated
10:41AM 37.1426 115.0863 21° North  Level Estimated
10:42AM 37.2379 115.1329 21° North  Level Estimated
10:43AM 37.3331 115.1796 21° North  Level Estimated
10:44AM 37.4283 115.2264 21° North  Level Estimated
10:45AM 37.5235 115.2733 21° North  Level Estimated
10:46AM 37.6187 115.3203 21° North  Level Estimated
10:47AM 37.7139 115.3675 21° North  Level Estimated
10:48AM 37.8090 115.4148 21° North  Level Estimated
10:49AM 37.9042 115.4622 21° North  Level Estimated
10:50AM 37.9993 115.5097 21° North  Level Estimated
10:51AM 38.0944 115.5574 22° Northeast  Level Estimated
10:52AM 38.1894 115.6052 22° Northeast  Level Estimated
10:53AM 38.2845 115.6531 22° Northeast  Level Estimated
10:54AM 38.3795 115.7011 22° Northeast  Level Estimated
10:55AM 38.4745 115.7493 22° Northeast  Level Estimated
10:56AM 38.5695 115.7976 22° Northeast  Level Estimated
10:57AM 38.6645 115.8460 22° Northeast  Level Estimated
10:58AM 38.7594 115.8945 22° Northeast  Level Estimated
10:59AM 38.8544 115.9432 22° Northeast  Level Estimated
11:00AM 38.9493 115.9920 22° Northeast  Level Estimated
11:01AM 39.0442 116.0409 22° Northeast  Level Estimated
11:02AM 39.1390 116.0900 22° Northeast  Level Estimated
11:03AM 39.2339 116.1392 22° Northeast  Level Estimated
11:04AM 39.3287 116.1885 22° Northeast  Level Estimated
11:05AM 39.4235 116.2380 22° Northeast  Level Estimated
11:06AM 39.5183 116.2876 22° Northeast  Level Estimated
11:07AM 39.6131 116.3373 22° Northeast  Level Estimated
11:08AM 39.7078 116.3872 22° Northeast  Level Estimated
11:09AM 39.8026 116.4372 22° Northeast  Level Estimated
11:10AM 39.8973 116.4873 22° Northeast  Level Estimated
11:11AM 39.9920 116.5376 22° Northeast  Level Estimated
11:12AM 40.0801 116.5846 22° Northeast  Level Estimated
11:13AM 40.0801 116.5846 288° West  Level Estimated
11:14AM 40.0801 116.5846 288° West  Level Estimated
11:15AM 40.0801 116.5846 288° West  Level Estimated
11:16AM 40.0801 116.5846 288° West  Level Estimated
11:17AM 40.0801 116.5846 288° West  Level Estimated